ELT weather

El Tor Airport
South Sinai Governorate, Egypt

Public forecast

Using degrees Celsius for public forecast. Weather courtesy of forecast.io.

Current aviation weather report (METAR) for El Tor Airport

Retrieved 2019/10/14 22:00 UTC (23 minutes ago):

HETR 142200Z 00000KT CAVOK 26/24 Q1012

Aviation forecast (TAF) for El Tor Airport

Retrieved 2019/10/14 18:00 UTC (4 hours ago):

TAF HETR 141700Z 1418/1524 30012KT 9999 SCT020 TEMPO 1418/1506 6000 RA BKN030 TEMPO 1423/1503 4000 FEW017CB